Accueil
METAR-TAF:

METAR-TAF

Aéroports :

Seward, Alaska, États-Unis

latitude: 60-07N, longitude: 149-27W, altitude: 9 m

Observation

Le bulletin a été fait il y a 37 minutes, à 21:11 UTC
Vent 17 kt de sud/sud-est avec des rafales jusqu'à 31 kt
Température 8°C
Humidité 76%
Pression 991 hPa
Visibilité: 16.1 km
Nuages épars à une hauteur de 2100 ft
Ciel couvert à une hauteur de 4700 ft

METAR: PAWD 202111Z AUTO 15017G31KT 10SM SCT021 OVC047 08/04 A2926 RMK AO2 PK WND 16031/2104 RAB2057E10 P0000 T00780044 TSNO

Heure: 12:48 (21:48 UTC)


TAF: absent

Observations et prévisions météorologiques de plus de 4000 aéroports (messages METAR et TAF).

Les stations disponibles sont représentées par des disques jaunes et rouges sur la carte.

Passer la souris dessus pour voir le nom de la station.

Cliquer dessus pour voir les observations et prévisions météorologiques.

Pour changer de carte: cliquez sur les boutons verts avec une croix noire pour zoomer, sur le bouton vert avec un tiret pour effectuer un zoom arrière, ou sur les flèches vertes pour les cartes adjacentes.


METAR-TAF: